Meteo Giornale » Osservazioni meteo Gran Bretagna » Boulmer

ore: 18:50 - Osservazioni Meteo Boulmer
Lat. 55° 25' N Lon. 1° 36' W Alt. 23 metri s.l.m.

foschia

17 °C

Foschia

Temp. 24 Ore

0 °C

19 °C

Sud-Ovest

27.8 Km/h

Dew point 13 °C

Umidità 77 %

Visibilità  1 Km

Il sole sorge alle ore 06:12

Il sole tramonta alle ore 20:00

Data e Ora Cielo e Fenomeni T °C DP °C Um. % Pres. hPa Vis. km Vento km/h
Oggi h: 18:50 foschia Foschia 17 13 77 1013 1 SO 27.8
Oggi h: 18:20 foschia Foschia 18 13 72 1013 2 O/SO 25.9
Oggi h: 17:50 foschia Foschia 18 13 72 1013 1 O/SO 27.8
Oggi h: 17:20 foschia Foschia 18 13 72 1013 1 O/SO 25.9
Oggi h: 16:50 foschia Foschia 18 13 72 1013 2 O/SO 29.6
Oggi h: 16:20 foschia Foschia 18 13 72 1013 2 O/SO 33.3
Oggi h: 15:50 molto_nuvoloso Molto Nuvoloso 18 13 72 1013 2 O/SO 33.3
Oggi h: 15:20 coperto Coperto 18 13 72 1013 2 O/SO 29.6
Oggi h: 14:50 coperto_pioggia Pioviggine 18 13 72 1013 2 O/SO 37
Oggi h: 14:20 coperto_pioggia Pioggia 18 13 72 1013 1 SO 29.6
Oggi h: 13:50 coperto_pioggia Pioggia 18 13 72 1013 2 O/SO 31.5
Oggi h: 13:20 coperto_pioggia Pioggia 17 14 82 1012 0.9 SO 33.3
Oggi h: 12:50 coperto_pioggia Pioggia 18 13 72 1013 0.9 SO 33.3
Oggi h: 12:20 foschia Foschia 18 13 72 1013 2 SO 27.8
Oggi h: 11:50 foschia Foschia 18 12 67 1013 2 SO 35.2
Oggi h: 11:20 foschia Foschia 18 12 67 1013 2 O/SO 35.2
Oggi h: 10:50 foschia Foschia 19 13 68 1013 4 O/SO 37
Oggi h: 10:20 foschia Foschia 18 12 67 1013 4 O/SO 25.9
Oggi h: 09:50 foschia Foschia 0 0 77 0 5 SO 24
Oggi h: 09:20 foschia Foschia 17 12 72 1013 5 SO 24
Oggi h: 08:50 coperto Coperto 15 12 82 1013 10 S/SO 13
Oggi h: 08:20 foschia Foschia 15 12 82 1013 10 S 16.7
Oggi h: 07:50 foschia Foschia 15 12 82 0 5 O/SO 18.5
Oggi h: 07:20 foschia Foschia 13 11 87 1014 10 S 7.4
Oggi h: 06:50 molto_nuvoloso Molto Nuvoloso 13 11 87 1014 10 S 11.1
Oggi h: 06:20 coperto Coperto 13 11 87 1014 10 N 5.5
Oggi h: 05:50 foschia Foschia 12 10 87 1014 4 SO 14.8
Oggi h: 05:20 foschia Foschia 13 10 81 1013 8 O/SO 25.9
Oggi h: 04:50 foschia Foschia 14 10 76 1014 5 O/SO 16.7
Oggi h: 04:20 coperto Coperto 13 10 81 1014 8 SO 7.4
Oggi h: 03:50 molto_nuvoloso Molto Nuvoloso 12 9 81 1014 10 S/SO 7.4
Oggi h: 03:20 nuvoloso Nuvoloso 13 8 71 1014 10 O 9.3
Oggi h: 02:50 foschia Foschia 13 9 76 1014 7 O 14.8
Oggi h: 02:20 foschia Foschia 13 8 71 1014 9 O 18.5
Oggi h: 01:50 foschia Foschia 13 8 71 1014 9 O 16.7
Oggi h: 01:20 foschia Foschia 0 0 77 0 7 O 16.7
Oggi h: 00:50 molto_nuvoloso Molto Nuvoloso 14 8 67 1014 10 O 22.2
Oggi h: 00:20 coperto Coperto 14 8 67 1014 10 O/NO 24
Ieri h: 23:50 coperto Coperto 14 7 62 1014 9 O 20.3
Ieri h: 23:20 sereno Sereno 14 8 67 0 10 O 22.2
Ieri h: 22:50 coperto Coperto 14 8 67 1013 10 O 25.9
Ieri h: 22:20 coperto Coperto 14 8 67 1013 10 O 24
Ieri h: 21:50 coperto Coperto 15 8 62 1013 10 O 24
Ieri h: 21:20 molto_nuvoloso Molto Nuvoloso 14 9 71 1013 10 O 14.8
Ieri h: 20:50 sereno Sereno 15 9 67 1012 10 O 16.7
Ieri h: 20:20 sereno Sereno 15 9 67 1012 10 O 16.7
Ieri h: 19:50 sereno Sereno 16 9 63 1011 10 O 20.3